sensor_id;sensor_type;location;lat;lon;timestamp;temperature;humidity
66102;HTU21D;52883;51.094;5.880;2023-04-03T00:03:30;1.48;118.99
66102;HTU21D;52883;51.094;5.880;2023-04-03T00:05:55;1.46;118.99
66102;HTU21D;52883;51.094;5.880;2023-04-03T00:08:26;1.39;118.99
66102;HTU21D;52883;51.094;5.880;2023-04-03T00:10:52;1.38;118.99
66102;HTU21D;52883;51.094;5.880;2023-04-03T00:13:18;1.34;118.99
66102;HTU21D;52883;51.094;5.880;2023-04-03T00:15:44;1.28;118.99
66102;HTU21D;52883;51.094;5.880;2023-04-03T00:18:09;1.27;118.99
66102;HTU21D;52883;51.094;5.880;2023-04-03T00:20:35;1.24;118.99
66102;HTU21D;52883;51.094;5.880;2023-04-03T00:23:01;1.17;118.99
66102;HTU21D;52883;51.094;5.880;2023-04-03T00:25:27;1.08;118.99
66102;HTU21D;52883;51.094;5.880;2023-04-03T00:27:53;0.97;118.99
66102;HTU21D;52883;51.094;5.880;2023-04-03T00:30:21;0.90;118.99
66102;HTU21D;52883;51.094;5.880;2023-04-03T00:32:48;0.78;118.99
66102;HTU21D;52883;51.094;5.880;2023-04-03T00:35:14;0.72;118.99
66102;HTU21D;52883;51.094;5.880;2023-04-03T00:37:42;0.62;118.99
66102;HTU21D;52883;51.094;5.880;2023-04-03T00:40:09;0.60;118.99
66102;HTU21D;52883;51.094;5.880;2023-04-03T00:42:36;0.53;118.99
66102;HTU21D;52883;51.094;5.880;2023-04-03T00:47:30;0.38;118.99
66102;HTU21D;52883;51.094;5.880;2023-04-03T00:49:57;0.34;118.99
66102;HTU21D;52883;51.094;5.880;2023-04-03T00:52:30;0.24;118.99
66102;HTU21D;52883;51.094;5.880;2023-04-03T00:55:01;0.25;118.99
66102;HTU21D;52883;51.094;5.880;2023-04-03T00:57:28;0.23;118.99
66102;HTU21D;52883;51.094;5.880;2023-04-03T01:00:10;0.20;118.99
66102;HTU21D;52883;51.094;5.880;2023-04-03T01:02:38;0.14;118.99
66102;HTU21D;52883;51.094;5.880;2023-04-03T01:05:07;0.03;118.99
66102;HTU21D;52883;51.094;5.880;2023-04-03T01:07:33;-0.01;118.99
66102;HTU21D;52883;51.094;5.880;2023-04-03T01:10:05;-0.03;118.99
66102;HTU21D;52883;51.094;5.880;2023-04-03T01:12:35;-0.06;118.99
66102;HTU21D;52883;51.094;5.880;2023-04-03T01:15:10;-0.15;118.99
66102;HTU21D;52883;51.094;5.880;2023-04-03T01:25:48;-0.61;118.99
66102;HTU21D;52883;51.094;5.880;2023-04-03T01:28:24;-0.68;118.99
66102;HTU21D;52883;51.094;5.880;2023-04-03T01:33:42;-0.66;118.99
66102;HTU21D;52883;51.094;5.880;2023-04-03T01:36:09;-0.65;118.99
66102;HTU21D;52883;51.094;5.880;2023-04-03T01:38:35;-0.64;118.99
66102;HTU21D;52883;51.094;5.880;2023-04-03T01:41:01;-0.65;118.99
66102;HTU21D;52883;51.094;5.880;2023-04-03T01:43:27;-0.64;118.99
66102;HTU21D;52883;51.094;5.880;2023-04-03T01:45:53;-0.64;118.99
66102;HTU21D;52883;51.094;5.880;2023-04-03T01:48:20;-0.65;118.99
66102;HTU21D;52883;51.094;5.880;2023-04-03T01:50:46;-0.65;118.99
66102;HTU21D;52883;51.094;5.880;2023-04-03T01:53:12;-0.67;118.99
66102;HTU21D;52883;51.094;5.880;2023-04-03T01:55:38;-0.65;118.99
66102;HTU21D;52883;51.094;5.880;2023-04-03T01:58:04;-0.71;118.99
66102;HTU21D;52883;51.094;5.880;2023-04-03T02:00:30;-0.77;118.99
66102;HTU21D;52883;51.094;5.880;2023-04-03T02:02:56;-0.77;118.99
66102;HTU21D;52883;51.094;5.880;2023-04-03T02:05:22;-0.77;118.99
66102;HTU21D;52883;51.094;5.880;2023-04-03T02:07:48;-0.82;118.99
66102;HTU21D;52883;51.094;5.880;2023-04-03T02:10:14;-0.79;118.99
66102;HTU21D;52883;51.094;5.880;2023-04-03T02:12:41;-0.74;118.99
66102;HTU21D;52883;51.094;5.880;2023-04-03T02:15:07;-0.70;118.99
66102;HTU21D;52883;51.094;5.880;2023-04-03T02:17:32;-0.58;118.99
66102;HTU21D;52883;51.094;5.880;2023-04-03T02:19:58;-0.45;118.99
66102;HTU21D;52883;51.094;5.880;2023-04-03T02:22:23;-0.40;118.99
66102;HTU21D;52883;51.094;5.880;2023-04-03T02:24:50;-0.41;118.99
66102;HTU21D;52883;51.094;5.880;2023-04-03T02:27:17;-0.36;118.99
66102;HTU21D;52883;51.094;5.880;2023-04-03T02:29:43;-0.32;118.99
66102;HTU21D;52883;51.094;5.880;2023-04-03T02:32:09;-0.28;118.99
66102;HTU21D;52883;51.094;5.880;2023-04-03T02:34:34;-0.26;118.99
66102;HTU21D;52883;51.094;5.880;2023-04-03T02:37:01;-0.26;118.99
66102;HTU21D;52883;51.094;5.880;2023-04-03T02:39:27;-0.22;118.99
66102;HTU21D;52883;51.094;5.880;2023-04-03T02:41:54;-0.20;118.99
66102;HTU21D;52883;51.094;5.880;2023-04-03T02:44:23;-0.14;118.99
66102;HTU21D;52883;51.094;5.880;2023-04-03T02:46:49;-0.08;118.99
66102;HTU21D;52883;51.094;5.880;2023-04-03T02:49:16;-0.00;118.99
66102;HTU21D;52883;51.094;5.880;2023-04-03T02:51:42;0.04;118.99
66102;HTU21D;52883;51.094;5.880;2023-04-03T02:54:08;0.13;118.99
66102;HTU21D;52883;51.094;5.880;2023-04-03T02:56:37;0.19;118.99
66102;HTU21D;52883;51.094;5.880;2023-04-03T02:59:03;0.21;118.99
66102;HTU21D;52883;51.094;5.880;2023-04-03T03:01:29;0.27;118.99
66102;HTU21D;52883;51.094;5.880;2023-04-03T03:04:00;0.31;118.99
66102;HTU21D;52883;51.094;5.880;2023-04-03T03:06:26;0.34;118.99
66102;HTU21D;52883;51.094;5.880;2023-04-03T03:08:52;0.31;118.99
66102;HTU21D;52883;51.094;5.880;2023-04-03T03:11:18;0.29;118.99
66102;HTU21D;52883;51.094;5.880;2023-04-03T03:13:44;0.28;118.99
66102;HTU21D;52883;51.094;5.880;2023-04-03T03:16:10;0.31;118.99
66102;HTU21D;52883;51.094;5.880;2023-04-03T03:18:36;0.33;118.99
66102;HTU21D;52883;51.094;5.880;2023-04-03T03:21:02;0.35;118.99
66102;HTU21D;52883;51.094;5.880;2023-04-03T03:23:30;0.33;118.99
66102;HTU21D;52883;51.094;5.880;2023-04-03T03:25:59;0.35;118.99
66102;HTU21D;52883;51.094;5.880;2023-04-03T03:28:26;0.33;118.99
66102;HTU21D;52883;51.094;5.880;2023-04-03T03:30:52;0.30;118.99
66102;HTU21D;52883;51.094;5.880;2023-04-03T03:33:18;0.30;118.99
66102;HTU21D;52883;51.094;5.880;2023-04-03T03:35:44;0.28;118.99
66102;HTU21D;52883;51.094;5.880;2023-04-03T03:38:11;0.27;118.99
66102;HTU21D;52883;51.094;5.880;2023-04-03T03:40:37;0.24;118.99
66102;HTU21D;52883;51.094;5.880;2023-04-03T03:43:03;0.28;118.99
66102;HTU21D;52883;51.094;5.880;2023-04-03T03:45:29;0.32;118.99
66102;HTU21D;52883;51.094;5.880;2023-04-03T03:47:56;0.30;118.99
66102;HTU21D;52883;51.094;5.880;2023-04-03T03:50:22;0.31;118.99
66102;HTU21D;52883;51.094;5.880;2023-04-03T03:52:48;0.29;118.99
66102;HTU21D;52883;51.094;5.880;2023-04-03T03:55:14;0.31;118.99
66102;HTU21D;52883;51.094;5.880;2023-04-03T03:57:40;0.32;118.99
66102;HTU21D;52883;51.094;5.880;2023-04-03T04:00:06;0.34;118.99
66102;HTU21D;52883;51.094;5.880;2023-04-03T04:02:41;0.36;118.99
66102;HTU21D;52883;51.094;5.880;2023-04-03T04:05:09;0.37;118.99
66102;HTU21D;52883;51.094;5.880;2023-04-03T04:07:35;0.37;118.99
66102;HTU21D;52883;51.094;5.880;2023-04-03T04:10:02;0.35;118.99
66102;HTU21D;52883;51.094;5.880;2023-04-03T04:12:28;0.37;118.99
66102;HTU21D;52883;51.094;5.880;2023-04-03T04:14:53;0.33;118.99
66102;HTU21D;52883;51.094;5.880;2023-04-03T04:17:19;0.23;118.99
66102;HTU21D;52883;51.094;5.880;2023-04-03T04:19:46;0.21;118.99
66102;HTU21D;52883;51.094;5.880;2023-04-03T04:22:12;0.22;118.99
66102;HTU21D;52883;51.094;5.880;2023-04-03T04:24:37;0.24;118.99
66102;HTU21D;52883;51.094;5.880;2023-04-03T04:27:03;0.25;118.99
66102;HTU21D;52883;51.094;5.880;2023-04-03T04:29:31;0.24;118.99
66102;HTU21D;52883;51.094;5.880;2023-04-03T04:32:02;0.19;118.99
66102;HTU21D;52883;51.094;5.880;2023-04-03T04:34:28;0.18;118.99
66102;HTU21D;52883;51.094;5.880;2023-04-03T04:36:54;0.16;118.99
66102;HTU21D;52883;51.094;5.880;2023-04-03T04:39:20;0.12;118.99
66102;HTU21D;52883;51.094;5.880;2023-04-03T04:41:45;0.13;118.99
66102;HTU21D;52883;51.094;5.880;2023-04-03T04:44:11;0.16;118.99
66102;HTU21D;52883;51.094;5.880;2023-04-03T04:46:38;0.14;118.99
66102;HTU21D;52883;51.094;5.880;2023-04-03T04:49:04;0.12;118.99
66102;HTU21D;52883;51.094;5.880;2023-04-03T04:51:30;0.09;118.99
66102;HTU21D;52883;51.094;5.880;2023-04-03T04:53:56;0.10;118.99
66102;HTU21D;52883;51.094;5.880;2023-04-03T04:56:23;0.18;118.99
66102;HTU21D;52883;51.094;5.880;2023-04-03T04:58:49;0.23;118.99
66102;HTU21D;52883;51.094;5.880;2023-04-03T05:01:17;0.24;118.99
66102;HTU21D;52883;51.094;5.880;2023-04-03T05:03:52;0.27;118.99
66102;HTU21D;52883;51.094;5.880;2023-04-03T05:06:18;0.27;118.99
66102;HTU21D;52883;51.094;5.880;2023-04-03T05:08:44;0.30;118.99
66102;HTU21D;52883;51.094;5.880;2023-04-03T05:11:10;0.32;118.99
66102;HTU21D;52883;51.094;5.880;2023-04-03T05:13:37;0.29;118.99
66102;HTU21D;52883;51.094;5.880;2023-04-03T05:16:03;0.33;118.99
66102;HTU21D;52883;51.094;5.880;2023-04-03T05:18:29;0.30;118.99
66102;HTU21D;52883;51.094;5.880;2023-04-03T05:20:58;0.34;118.99
66102;HTU21D;52883;51.094;5.880;2023-04-03T05:23:25;0.43;118.99
66102;HTU21D;52883;51.094;5.880;2023-04-03T05:25:50;0.46;118.99
66102;HTU21D;52883;51.094;5.880;2023-04-03T05:28:17;0.48;118.99
66102;HTU21D;52883;51.094;5.880;2023-04-03T05:30:43;0.53;118.99
66102;HTU21D;52883;51.094;5.880;2023-04-03T05:33:09;0.53;118.99
66102;HTU21D;52883;51.094;5.880;2023-04-03T05:35:40;0.63;118.99
66102;HTU21D;52883;51.094;5.880;2023-04-03T05:38:09;0.71;118.99
66102;HTU21D;52883;51.094;5.880;2023-04-03T05:40:35;0.80;118.99
66102;HTU21D;52883;51.094;5.880;2023-04-03T05:43:01;0.89;118.99
66102;HTU21D;52883;51.094;5.880;2023-04-03T05:45:30;1.01;118.99
66102;HTU21D;52883;51.094;5.880;2023-04-03T05:47:57;1.08;118.99
66102;HTU21D;52883;51.094;5.880;2023-04-03T05:50:23;1.56;118.99
66102;HTU21D;52883;51.094;5.880;2023-04-03T05:52:55;2.68;118.99
66102;HTU21D;52883;51.094;5.880;2023-04-03T05:55:21;3.60;118.99
66102;HTU21D;52883;51.094;5.880;2023-04-03T05:57:48;4.42;118.99
66102;HTU21D;52883;51.094;5.880;2023-04-03T06:00:14;4.87;118.99
66102;HTU21D;52883;51.094;5.880;2023-04-03T06:02:50;5.36;118.99
66102;HTU21D;52883;51.094;5.880;2023-04-03T06:05:20;5.68;118.99
66102;HTU21D;52883;51.094;5.880;2023-04-03T06:07:46;6.11;118.99
66102;HTU21D;52883;51.094;5.880;2023-04-03T06:10:12;6.54;118.99
66102;HTU21D;52883;51.094;5.880;2023-04-03T06:12:38;6.72;118.99
66102;HTU21D;52883;51.094;5.880;2023-04-03T06:15:03;6.75;118.99
66102;HTU21D;52883;51.094;5.880;2023-04-03T06:17:29;6.84;118.99
66102;HTU21D;52883;51.094;5.880;2023-04-03T06:19:55;6.73;118.99
66102;HTU21D;52883;51.094;5.880;2023-04-03T06:22:23;7.16;118.99
66102;HTU21D;52883;51.094;5.880;2023-04-03T06:24:51;7.55;118.99
66102;HTU21D;52883;51.094;5.880;2023-04-03T06:27:16;8.12;118.99
66102;HTU21D;52883;51.094;5.880;2023-04-03T06:29:42;8.30;118.99
66102;HTU21D;52883;51.094;5.880;2023-04-03T06:32:08;8.31;118.99
66102;HTU21D;52883;51.094;5.880;2023-04-03T06:34:34;8.45;118.99
66102;HTU21D;52883;51.094;5.880;2023-04-03T06:37:00;7.84;118.99
66102;HTU21D;52883;51.094;5.880;2023-04-03T06:39:26;7.40;118.99
66102;HTU21D;52883;51.094;5.880;2023-04-03T06:41:52;7.67;118.99
66102;HTU21D;52883;51.094;5.880;2023-04-03T06:44:25;7.30;118.99
66102;HTU21D;52883;51.094;5.880;2023-04-03T06:46:51;7.24;118.99
66102;HTU21D;52883;51.094;5.880;2023-04-03T06:49:17;7.44;118.99
66102;HTU21D;52883;51.094;5.880;2023-04-03T06:51:42;7.46;118.99
66102;HTU21D;52883;51.094;5.880;2023-04-03T06:54:08;7.01;118.99
66102;HTU21D;52883;51.094;5.880;2023-04-03T06:56:34;6.86;118.99
66102;HTU21D;52883;51.094;5.880;2023-04-03T06:58:59;6.86;118.99
66102;HTU21D;52883;51.094;5.880;2023-04-03T07:01:28;6.84;118.99
66102;HTU21D;52883;51.094;5.880;2023-04-03T07:03:54;6.66;118.99
66102;HTU21D;52883;51.094;5.880;2023-04-03T07:06:20;6.20;118.99
66102;HTU21D;52883;51.094;5.880;2023-04-03T07:08:47;5.67;118.99
66102;HTU21D;52883;51.094;5.880;2023-04-03T07:11:14;5.60;118.99
66102;HTU21D;52883;51.094;5.880;2023-04-03T07:13:40;5.48;118.99
66102;HTU21D;52883;51.094;5.880;2023-04-03T07:16:07;5.13;118.99
66102;HTU21D;52883;51.094;5.880;2023-04-03T07:18:33;4.78;118.99
66102;HTU21D;52883;51.094;5.880;2023-04-03T07:20:59;4.51;118.99
66102;HTU21D;52883;51.094;5.880;2023-04-03T07:23:25;4.43;118.99
66102;HTU21D;52883;51.094;5.880;2023-04-03T07:25:52;4.38;118.99
66102;HTU21D;52883;51.094;5.880;2023-04-03T07:28:19;4.32;118.99
66102;HTU21D;52883;51.094;5.880;2023-04-03T07:30:47;4.24;118.99
66102;HTU21D;52883;51.094;5.880;2023-04-03T07:33:14;4.19;118.99
66102;HTU21D;52883;51.094;5.880;2023-04-03T07:35:40;4.19;118.99
66102;HTU21D;52883;51.094;5.880;2023-04-03T07:38:06;4.23;118.99
66102;HTU21D;52883;51.094;5.880;2023-04-03T07:40:32;4.22;118.99
66102;HTU21D;52883;51.094;5.880;2023-04-03T07:42:59;4.24;118.99
66102;HTU21D;52883;51.094;5.880;2023-04-03T07:45:25;4.34;118.99
66102;HTU21D;52883;51.094;5.880;2023-04-03T07:47:51;4.42;118.99
66102;HTU21D;52883;51.094;5.880;2023-04-03T07:50:17;4.41;118.99
66102;HTU21D;52883;51.094;5.880;2023-04-03T07:52:43;4.53;118.99
66102;HTU21D;52883;51.094;5.880;2023-04-03T07:55:09;4.65;118.99
66102;HTU21D;52883;51.094;5.880;2023-04-03T07:57:34;4.71;118.99
66102;HTU21D;52883;51.094;5.880;2023-04-03T08:00:01;4.78;118.99
66102;HTU21D;52883;51.094;5.880;2023-04-03T08:02:26;4.84;118.99
66102;HTU21D;52883;51.094;5.880;2023-04-03T08:04:52;4.98;118.99
66102;HTU21D;52883;51.094;5.880;2023-04-03T08:07:17;5.03;118.99
66102;HTU21D;52883;51.094;5.880;2023-04-03T08:09:43;5.02;118.99
66102;HTU21D;52883;51.094;5.880;2023-04-03T08:12:09;5.02;118.99
66102;HTU21D;52883;51.094;5.880;2023-04-03T08:14:37;5.18;118.99
66102;HTU21D;52883;51.094;5.880;2023-04-03T08:17:02;5.47;118.99
66102;HTU21D;52883;51.094;5.880;2023-04-03T08:19:30;5.89;118.99
66102;HTU21D;52883;51.094;5.880;2023-04-03T08:21:56;5.91;118.99
66102;HTU21D;52883;51.094;5.880;2023-04-03T08:24:24;5.85;118.99
66102;HTU21D;52883;51.094;5.880;2023-04-03T08:26:50;5.79;118.99
66102;HTU21D;52883;51.094;5.880;2023-04-03T08:29:16;5.76;118.99
66102;HTU21D;52883;51.094;5.880;2023-04-03T08:31:42;5.93;118.99
66102;HTU21D;52883;51.094;5.880;2023-04-03T08:34:08;5.99;118.99
66102;HTU21D;52883;51.094;5.880;2023-04-03T08:36:33;6.17;118.99
66102;HTU21D;52883;51.094;5.880;2023-04-03T08:38:59;6.35;118.99
66102;HTU21D;52883;51.094;5.880;2023-04-03T08:41:35;6.29;118.99
66102;HTU21D;52883;51.094;5.880;2023-04-03T08:44:38;6.53;111.12
66102;HTU21D;52883;51.094;5.880;2023-04-03T08:50:20;7.59;118.99
66102;HTU21D;52883;51.094;5.880;2023-04-03T08:52:55;7.94;88.02
66102;HTU21D;52883;51.094;5.880;2023-04-03T08:55:28;7.93;96.04
66102;HTU21D;52883;51.094;5.880;2023-04-03T08:58:04;8.30;115.66
66102;HTU21D;52883;51.094;5.880;2023-04-03T09:00:56;8.94;118.99
66102;HTU21D;52883;51.094;5.880;2023-04-03T09:03:22;9.05;118.99
66102;HTU21D;52883;51.094;5.880;2023-04-03T09:05:55;8.91;95.87
66102;HTU21D;52883;51.094;5.880;2023-04-03T09:08:31;8.88;118.14
66102;HTU21D;52883;51.094;5.880;2023-04-03T09:16:49;8.50;95.50
66102;HTU21D;52883;51.094;5.880;2023-04-03T09:21:58;8.70;97.33
66102;HTU21D;52883;51.094;5.880;2023-04-03T09:24:25;8.87;82.75
66102;HTU21D;52883;51.094;5.880;2023-04-03T09:26:57;9.14;62.31
66102;HTU21D;52883;51.094;5.880;2023-04-03T09:29:26;9.33;76.31
66102;HTU21D;52883;51.094;5.880;2023-04-03T09:32:01;9.75;73.39
66102;HTU21D;52883;51.094;5.880;2023-04-03T09:34:32;9.86;81.91
66102;HTU21D;52883;51.094;5.880;2023-04-03T09:37:00;9.98;52.62
66102;HTU21D;52883;51.094;5.880;2023-04-03T09:39:48;9.84;49.10
66102;HTU21D;52883;51.094;5.880;2023-04-03T09:42:20;9.89;68.57
66102;HTU21D;52883;51.094;5.880;2023-04-03T09:44:59;9.89;69.73
66102;HTU21D;52883;51.094;5.880;2023-04-03T09:47:36;9.97;73.64
66102;HTU21D;52883;51.094;5.880;2023-04-03T09:52:46;10.12;68.39
66102;HTU21D;52883;51.094;5.880;2023-04-03T09:55:17;10.03;64.46
66102;HTU21D;52883;51.094;5.880;2023-04-03T09:57:45;9.99;65.59
66102;HTU21D;52883;51.094;5.880;2023-04-03T10:00:37;9.99;56.41
66102;HTU21D;52883;51.094;5.880;2023-04-03T10:03:05;10.01;58.25
66102;HTU21D;52883;51.094;5.880;2023-04-03T10:05:35;10.10;66.75
66102;HTU21D;52883;51.094;5.880;2023-04-03T10:10:41;10.79;83.73
66102;HTU21D;52883;51.094;5.880;2023-04-03T10:13:18;10.98;67.49
66102;HTU21D;52883;51.094;5.880;2023-04-03T10:15:51;11.02;86.61
66102;HTU21D;52883;51.094;5.880;2023-04-03T10:18:39;11.28;51.22
66102;HTU21D;52883;51.094;5.880;2023-04-03T10:23:54;11.34;67.01
66102;HTU21D;52883;51.094;5.880;2023-04-03T10:43:10;10.84;58.11
66102;HTU21D;52883;51.094;5.880;2023-04-03T10:46:02;10.96;67.04
66102;HTU21D;52883;51.094;5.880;2023-04-03T10:48:45;10.77;59.38
66102;HTU21D;52883;51.094;5.880;2023-04-03T10:51:40;10.86;66.07
66102;HTU21D;52883;51.094;5.880;2023-04-03T10:54:27;10.97;68.55
66102;HTU21D;52883;51.094;5.880;2023-04-03T10:57:03;10.99;70.05
66102;HTU21D;52883;51.094;5.880;2023-04-03T11:00:03;10.69;80.20
66102;HTU21D;52883;51.094;5.880;2023-04-03T11:05:15;11.12;76.25
66102;HTU21D;52883;51.094;5.880;2023-04-03T11:07:47;11.39;85.21
66102;HTU21D;52883;51.094;5.880;2023-04-03T11:11:05;11.78;76.00
66102;HTU21D;52883;51.094;5.880;2023-04-03T11:13:40;12.05;59.17
66102;HTU21D;52883;51.094;5.880;2023-04-03T11:16:08;12.07;63.98
66102;HTU21D;52883;51.094;5.880;2023-04-03T11:18:48;12.06;68.15
66102;HTU21D;52883;51.094;5.880;2023-04-03T11:21:28;12.13;73.43
66102;HTU21D;52883;51.094;5.880;2023-04-03T11:23:57;12.71;51.97
66102;HTU21D;52883;51.094;5.880;2023-04-03T11:26:29;12.93;40.37
66102;HTU21D;52883;51.094;5.880;2023-04-03T11:29:02;12.46;47.01
66102;HTU21D;52883;51.094;5.880;2023-04-03T11:36:48;12.30;49.83
66102;HTU21D;52883;51.094;5.880;2023-04-03T11:39:28;12.12;57.04
66102;HTU21D;52883;51.094;5.880;2023-04-03T11:42:20;12.37;52.62
66102;HTU21D;52883;51.094;5.880;2023-04-03T11:44:49;12.40;63.58
66102;HTU21D;52883;51.094;5.880;2023-04-03T11:47:48;12.60;57.41
66102;HTU21D;52883;51.094;5.880;2023-04-03T12:05:53;12.70;58.21
66102;HTU21D;52883;51.094;5.880;2023-04-03T12:08:27;12.67;52.11
66102;HTU21D;52883;51.094;5.880;2023-04-03T12:16:29;12.59;73.32
66102;HTU21D;52883;51.094;5.880;2023-04-03T12:24:31;12.46;71.00
66102;HTU21D;52883;51.094;5.880;2023-04-03T12:40:42;13.24;59.44
66102;HTU21D;52883;51.094;5.880;2023-04-03T12:43:12;13.41;52.62
66102;HTU21D;52883;51.094;5.880;2023-04-03T12:48:25;13.31;47.25
66102;HTU21D;52883;51.094;5.880;2023-04-03T12:50:52;13.21;51.27
66102;HTU21D;52883;51.094;5.880;2023-04-03T12:53:47;12.95;59.13
66102;HTU21D;52883;51.094;5.880;2023-04-03T12:56:24;12.89;53.20
66102;HTU21D;52883;51.094;5.880;2023-04-03T12:58:52;12.90;64.65
66102;HTU21D;52883;51.094;5.880;2023-04-03T13:01:22;13.02;53.94
66102;HTU21D;52883;51.094;5.880;2023-04-03T13:03:52;13.08;47.05
66102;HTU21D;52883;51.094;5.880;2023-04-03T13:06:26;13.15;53.73
66102;HTU21D;52883;51.094;5.880;2023-04-03T13:08:56;13.03;60.82
66102;HTU21D;52883;51.094;5.880;2023-04-03T13:11:27;12.91;62.86
66102;HTU21D;52883;51.094;5.880;2023-04-03T13:13:58;13.05;62.85
66102;HTU21D;52883;51.094;5.880;2023-04-03T13:16:24;12.92;53.04
66102;HTU21D;52883;51.094;5.880;2023-04-03T13:18:52;12.85;59.69
66102;HTU21D;52883;51.094;5.880;2023-04-03T13:21:22;13.06;65.75
66102;HTU21D;52883;51.094;5.880;2023-04-03T13:23:54;13.52;41.34
66102;HTU21D;52883;51.094;5.880;2023-04-03T13:26:22;13.66;52.83
66102;HTU21D;52883;51.094;5.880;2023-04-03T13:28:49;13.69;58.53
66102;HTU21D;52883;51.094;5.880;2023-04-03T13:31:26;13.81;54.62
66102;HTU21D;52883;51.094;5.880;2023-04-03T13:34:16;13.53;67.80
66102;HTU21D;52883;51.094;5.880;2023-04-03T13:36:50;13.45;61.98
66102;HTU21D;52883;51.094;5.880;2023-04-03T13:39:27;13.41;65.88
66102;HTU21D;52883;51.094;5.880;2023-04-03T13:42:00;13.37;48.57
66102;HTU21D;52883;51.094;5.880;2023-04-03T13:44:31;13.29;63.23
66102;HTU21D;52883;51.094;5.880;2023-04-03T13:47:01;13.34;49.80
66102;HTU21D;52883;51.094;5.880;2023-04-03T13:49:44;13.29;48.44
66102;HTU21D;52883;51.094;5.880;2023-04-03T13:52:31;13.29;45.22
66102;HTU21D;52883;51.094;5.880;2023-04-03T13:55:18;13.03;55.23
66102;HTU21D;52883;51.094;5.880;2023-04-03T13:57:57;13.04;67.93
66102;HTU21D;52883;51.094;5.880;2023-04-03T14:00:36;13.21;54.51
66102;HTU21D;52883;51.094;5.880;2023-04-03T14:03:16;13.29;56.77
66102;HTU21D;52883;51.094;5.880;2023-04-03T14:05:44;13.29;44.83
66102;HTU21D;52883;51.094;5.880;2023-04-03T14:08:11;13.06;47.58
66102;HTU21D;52883;51.094;5.880;2023-04-03T14:10:37;12.56;45.73
66102;HTU21D;52883;51.094;5.880;2023-04-03T14:13:03;12.30;47.57
66102;HTU21D;52883;51.094;5.880;2023-04-03T14:15:30;12.35;47.37
66102;HTU21D;52883;51.094;5.880;2023-04-03T14:17:58;12.13;43.29
66102;HTU21D;52883;51.094;5.880;2023-04-03T14:20:26;11.91;53.55
66102;HTU21D;52883;51.094;5.880;2023-04-03T14:22:53;11.79;54.71
66102;HTU21D;52883;51.094;5.880;2023-04-03T14:25:20;11.92;52.49
66102;HTU21D;52883;51.094;5.880;2023-04-03T14:27:49;12.03;59.38
66102;HTU21D;52883;51.094;5.880;2023-04-03T14:30:26;12.06;50.07
66102;HTU21D;52883;51.094;5.880;2023-04-03T14:32:52;12.06;49.69
66102;HTU21D;52883;51.094;5.880;2023-04-03T14:35:17;12.05;44.32
66102;HTU21D;52883;51.094;5.880;2023-04-03T14:37:44;12.10;48.27
66102;HTU21D;52883;51.094;5.880;2023-04-03T14:40:18;11.83;41.40
66102;HTU21D;52883;51.094;5.880;2023-04-03T14:42:44;11.60;44.21
66102;HTU21D;52883;51.094;5.880;2023-04-03T14:45:11;11.17;49.51
66102;HTU21D;52883;51.094;5.880;2023-04-03T14:47:45;10.84;48.55
66102;HTU21D;52883;51.094;5.880;2023-04-03T14:50:16;10.62;48.11
66102;HTU21D;52883;51.094;5.880;2023-04-03T14:52:43;10.49;49.66
66102;HTU21D;52883;51.094;5.880;2023-04-03T14:55:12;10.30;49.66
66102;HTU21D;52883;51.094;5.880;2023-04-03T14:57:38;10.13;51.37
66102;HTU21D;52883;51.094;5.880;2023-04-03T15:00:07;9.95;55.19
66102;HTU21D;52883;51.094;5.880;2023-04-03T15:02:38;9.90;51.98
66102;HTU21D;52883;51.094;5.880;2023-04-03T15:05:07;9.95;50.47
66102;HTU21D;52883;51.094;5.880;2023-04-03T15:07:40;9.84;47.79
66102;HTU21D;52883;51.094;5.880;2023-04-03T15:10:28;9.66;46.53
66102;HTU21D;52883;51.094;5.880;2023-04-03T15:12:54;9.55;51.88
66102;HTU21D;52883;51.094;5.880;2023-04-03T15:15:22;9.45;51.72
66102;HTU21D;52883;51.094;5.880;2023-04-03T15:17:53;9.33;50.15
66102;HTU21D;52883;51.094;5.880;2023-04-03T15:20:23;9.27;53.14
66102;HTU21D;52883;51.094;5.880;2023-04-03T15:22:49;9.18;50.27
66102;HTU21D;52883;51.094;5.880;2023-04-03T15:25:15;9.14;55.11
66102;HTU21D;52883;51.094;5.880;2023-04-03T15:27:42;9.04;48.25
66102;HTU21D;52883;51.094;5.880;2023-04-03T15:30:13;8.93;51.10
66102;HTU21D;52883;51.094;5.880;2023-04-03T15:32:40;8.90;50.92
66102;HTU21D;52883;51.094;5.880;2023-04-03T15:35:06;8.91;55.76
66102;HTU21D;52883;51.094;5.880;2023-04-03T15:37:32;8.88;47.72
66102;HTU21D;52883;51.094;5.880;2023-04-03T15:39:58;8.82;48.21
66102;HTU21D;52883;51.094;5.880;2023-04-03T15:42:23;8.80;54.23
66102;HTU21D;52883;51.094;5.880;2023-04-03T15:44:49;8.78;51.91
66102;HTU21D;52883;51.094;5.880;2023-04-03T15:47:15;8.71;49.33
66102;HTU21D;52883;51.094;5.880;2023-04-03T15:49:41;8.65;52.07
66102;HTU21D;52883;51.094;5.880;2023-04-03T15:52:06;8.64;53.85
66102;HTU21D;52883;51.094;5.880;2023-04-03T15:54:32;8.64;59.72
66102;HTU21D;52883;51.094;5.880;2023-04-03T15:56:58;8.63;53.71
66102;HTU21D;52883;51.094;5.880;2023-04-03T15:59:23;8.61;55.35
66102;HTU21D;52883;51.094;5.880;2023-04-03T16:01:51;8.57;57.38
66102;HTU21D;52883;51.094;5.880;2023-04-03T16:04:18;8.61;54.80
66102;HTU21D;52883;51.094;5.880;2023-04-03T16:06:44;8.55;53.48
66102;HTU21D;52883;51.094;5.880;2023-04-03T16:09:10;8.46;53.32
66102;HTU21D;52883;51.094;5.880;2023-04-03T16:11:36;8.43;56.60
66102;HTU21D;52883;51.094;5.880;2023-04-03T16:14:08;8.44;57.47
66102;HTU21D;52883;51.094;5.880;2023-04-03T16:16:33;8.37;58.24
66102;HTU21D;52883;51.094;5.880;2023-04-03T16:19:00;8.34;58.80
66102;HTU21D;52883;51.094;5.880;2023-04-03T16:21:27;8.31;59.12
66102;HTU21D;52883;51.094;5.880;2023-04-03T16:23:53;8.30;61.14
66102;HTU21D;52883;51.094;5.880;2023-04-03T16:26:19;8.24;57.76
66102;HTU21D;52883;51.094;5.880;2023-04-03T16:28:45;8.24;64.24
66102;HTU21D;52883;51.094;5.880;2023-04-03T16:31:11;8.21;62.18
66102;HTU21D;52883;51.094;5.880;2023-04-03T16:33:37;8.22;61.48
66102;HTU21D;52883;51.094;5.880;2023-04-03T16:36:03;8.19;54.68
66102;HTU21D;52883;51.094;5.880;2023-04-03T16:38:30;8.14;56.67
66102;HTU21D;52883;51.094;5.880;2023-04-03T16:40:55;8.08;59.87
66102;HTU21D;52883;51.094;5.880;2023-04-03T16:43:26;8.02;59.71
66102;HTU21D;52883;51.094;5.880;2023-04-03T16:45:52;7.97;61.76
66102;HTU21D;52883;51.094;5.880;2023-04-03T16:48:18;7.89;55.40
66102;HTU21D;52883;51.094;5.880;2023-04-03T16:50:47;7.85;61.58
66102;HTU21D;52883;51.094;5.880;2023-04-03T16:53:14;7.83;63.94
66102;HTU21D;52883;51.094;5.880;2023-04-03T16:55:40;7.81;65.51
66102;HTU21D;52883;51.094;5.880;2023-04-03T16:58:06;7.74;63.52
66102;HTU21D;52883;51.094;5.880;2023-04-03T17:00:32;7.74;62.92
66102;HTU21D;52883;51.094;5.880;2023-04-03T17:02:59;7.70;62.83
66102;HTU21D;52883;51.094;5.880;2023-04-03T17:05:26;7.65;64.98
66102;HTU21D;52883;51.094;5.880;2023-04-03T17:07:51;7.63;64.14
66102;HTU21D;52883;51.094;5.880;2023-04-03T17:10:17;7.59;64.87
66102;HTU21D;52883;51.094;5.880;2023-04-03T17:12:43;7.56;67.25